createdAt,value
2023-03-03T00:00:10.783Z,99991.78
2023-03-03T00:02:58.212Z,99989.38
2023-03-03T00:05:47.621Z,99985.09
2023-03-03T00:08:42.131Z,99992.13
2023-03-03T00:11:20.093Z,99995.06
2023-03-03T00:14:07.345Z,99995.19
2023-03-03T00:16:53.017Z,99993.84
2023-03-03T00:19:45.027Z,99991.03
2023-03-03T00:22:40.304Z,99987.69
2023-03-03T00:25:52.883Z,99986.72
2023-03-03T00:29:07.542Z,99987.13
2023-03-03T00:31:52.231Z,99991.72
2023-03-03T00:34:41.865Z,99981.81
2023-03-03T00:38:01.902Z,99981.00
2023-03-03T00:40:54.257Z,99975.97
2023-03-03T00:43:40.812Z,99973.31
2023-03-03T00:46:33.350Z,99983.34
2023-03-03T00:49:31.939Z,99968.53
2023-03-03T00:52:33.813Z,99971.59
2023-03-03T00:55:19.691Z,99965.59
2023-03-03T00:58:01.881Z,99972.44
2023-03-03T01:00:49.857Z,99967.84
2023-03-03T01:03:46.074Z,99959.19
2023-03-03T01:06:27.086Z,99957.22
2023-03-03T01:09:17.121Z,99953.44
2023-03-03T01:11:59.344Z,99953.59
2023-03-03T01:14:55.884Z,99950.50
2023-03-03T01:17:41.095Z,99949.97
2023-03-03T01:20:24.990Z,99952.75
2023-03-03T01:23:11.277Z,99955.69
2023-03-03T01:26:05.831Z,99944.97
2023-03-03T01:28:52.416Z,99937.41
2023-03-03T01:31:36.166Z,99937.13
2023-03-03T01:34:23.516Z,99938.00
2023-03-03T01:37:15.250Z,99938.84
2023-03-03T01:40:02.324Z,99938.28
2023-03-03T01:42:57.154Z,99942.88
2023-03-03T01:45:59.130Z,99934.38
2023-03-03T01:48:53.785Z,99935.22
2023-03-03T01:51:51.875Z,99930.03
2023-03-03T01:54:47.214Z,99930.47
2023-03-03T01:57:33.737Z,99925.31
2023-03-03T02:00:20.056Z,99929.91
2023-03-03T02:02:58.777Z,99931.03
2023-03-03T02:05:36.498Z,99929.78
2023-03-03T02:08:22.222Z,99933.53
2023-03-03T02:11:00.902Z,99922.38
2023-03-03T02:13:36.117Z,99926.13
2023-03-03T02:16:24.559Z,99918.31
2023-03-03T02:19:16.612Z,99925.44
2023-03-03T02:22:02.697Z,99916.53
2023-03-03T02:24:47.974Z,99916.78
2023-03-03T02:27:38.402Z,99923.50
2023-03-03T02:30:22.286Z,99919.31
2023-03-03T02:33:08.510Z,99923.50
2023-03-03T02:35:57.008Z,99918.59
2023-03-03T02:38:49.801Z,99927.69
2023-03-03T02:41:51.375Z,99921.81
2023-03-03T02:44:33.263Z,99913.16
2023-03-03T02:47:11.220Z,99911.63
2023-03-03T02:49:51.764Z,99907.31
2023-03-03T02:52:35.840Z,99903.81
2023-03-03T02:55:16.311Z,99907.56
2023-03-03T02:58:00.263Z,99898.66
2023-03-03T03:00:38.000Z,99908.69
2023-03-03T03:03:16.205Z,99908.00
2023-03-03T03:06:03.739Z,99905.19
2023-03-03T03:08:55.114Z,99902.56
2023-03-03T03:11:36.473Z,99900.19
2023-03-03T03:14:18.898Z,99900.88
2023-03-03T03:16:58.201Z,99898.34
2023-03-03T03:19:43.768Z,99892.34
2023-03-03T03:22:19.703Z,99881.72
2023-03-03T03:25:01.150Z,99891.50
2023-03-03T03:27:45.148Z,99889.81
2023-03-03T03:30:34.577Z,99893.56
2023-03-03T03:33:12.771Z,99897.31
2023-03-03T03:36:04.417Z,99892.41
2023-03-03T03:38:52.473Z,99880.13
2023-03-03T03:41:33.091Z,99885.97
2023-03-03T03:44:11.381Z,99884.56
2023-03-03T03:47:10.450Z,99882.34
2023-03-03T03:50:05.427Z,99881.47
2023-03-03T03:52:44.000Z,99878.00
2023-03-03T03:55:30.038Z,99876.47
2023-03-03T03:58:07.853Z,99877.59
2023-03-03T04:00:49.171Z,99867.56
2023-03-03T04:03:36.521Z,99876.03
2023-03-03T04:06:29.251Z,99879.25
2023-03-03T04:09:10.510Z,99879.03
2023-03-03T04:12:00.727Z,99878.16
2023-03-03T04:14:49.657Z,99882.47
2023-03-03T04:17:31.175Z,99879.63
2023-03-03T04:20:13.628Z,99873.22
2023-03-03T04:22:57.936Z,99874.19
2023-03-03T04:25:42.601Z,99876.41
2023-03-03T04:28:30.055Z,99874.75
2023-03-03T04:31:19.821Z,99867.47
2023-03-03T04:34:14.981Z,99877.09
2023-03-03T04:36:51.430Z,99875.03
2023-03-03T04:39:40.851Z,99871.13
2023-03-03T04:42:24.682Z,99869.06
2023-03-03T04:45:09.601Z,99878.50
2023-03-03T04:48:01.440Z,99870.34
2023-03-03T04:50:43.894Z,99871.34
2023-03-03T04:53:40.337Z,99872.31
2023-03-03T04:56:26.942Z,99867.56
2023-03-03T04:59:10.526Z,99869.22
2023-03-03T05:01:53.404Z,99868.53
2023-03-03T05:04:31.611Z,99862.78
2023-03-03T05:07:26.852Z,99864.06
2023-03-03T05:10:21.539Z,99866.00
2023-03-03T05:13:06.458Z,99866.41
2023-03-03T05:15:50.599Z,99861.25
2023-03-03T05:18:35.531Z,99860.69
2023-03-03T05:21:14.222Z,99867.13
2023-03-03T05:24:13.820Z,99866.09
2023-03-03T05:26:52.330Z,99860.69
2023-03-03T05:29:31.342Z,99859.72
2023-03-03T05:32:20.498Z,99863.06
2023-03-03T05:35:04.510Z,99870.44
2023-03-03T05:37:59.016Z,99867.47
2023-03-03T05:40:43.926Z,99866.94
2023-03-03T05:43:33.330Z,99873.09
2023-03-03T05:46:14.559Z,99872.00
2023-03-03T05:48:58.399Z,99872.31
2023-03-03T05:51:48.022Z,99867.72
2023-03-03T05:54:48.808Z,99865.63
2023-03-03T05:57:29.565Z,99867.06
2023-03-03T06:00:19.708Z,99869.53
2023-03-03T06:03:06.167Z,99874.28
2023-03-03T06:05:49.412Z,99871.63
2023-03-03T06:08:32.977Z,99869.00
2023-03-03T06:11:16.787Z,99876.69
2023-03-03T06:14:10.786Z,99877.13
2023-03-03T06:16:56.474Z,99881.84
2023-03-03T06:19:48.553Z,99881.03
2023-03-03T06:22:30.150Z,99886.22
2023-03-03T06:25:13.598Z,99886.19
2023-03-03T06:27:55.050Z,99889.16
2023-03-03T06:30:42.409Z,99898.09
2023-03-03T06:33:17.301Z,99900.63
2023-03-03T06:35:58.874Z,99897.25
2023-03-03T06:38:34.032Z,99889.31
2023-03-03T06:41:24.724Z,99903.41
2023-03-03T06:44:02.911Z,99901.28
2023-03-03T06:46:48.638Z,99908.59
2023-03-03T06:49:29.912Z,99910.63
2023-03-03T06:52:17.655Z,99912.03
2023-03-03T06:54:56.782Z,99908.03
2023-03-03T06:57:49.085Z,99916.53
2023-03-03T07:00:35.126Z,99910.34
2023-03-03T07:03:29.551Z,99914.16
2023-03-03T07:06:29.560Z,99919.16
2023-03-03T07:09:11.964Z,99913.72
2023-03-03T07:11:50.124Z,99911.03
2023-03-03T07:14:34.488Z,99910.81
2023-03-03T07:17:24.130Z,99909.22
2023-03-03T07:20:21.116Z,99910.03
2023-03-03T07:23:22.730Z,99911.91
2023-03-03T07:26:33.470Z,99920.47
2023-03-03T07:29:27.729Z,99912.81
2023-03-03T07:32:20.180Z,99916.47
2023-03-03T07:35:02.594Z,99908.09
2023-03-03T07:37:54.967Z,99916.56
2023-03-03T07:40:54.951Z,99912.38
2023-03-03T07:43:40.132Z,99916.38
2023-03-03T07:46:41.052Z,99912.31
2023-03-03T07:49:41.519Z,99911.06
2023-03-03T07:52:34.158Z,99915.94
2023-03-03T07:55:32.133Z,99914.63
2023-03-03T07:58:49.108Z,99918.94
2023-03-03T08:01:48.455Z,99922.06
2023-03-03T08:04:47.439Z,99914.22
2023-03-03T08:07:23.359Z,99914.91
2023-03-03T08:10:48.213Z,99910.03
2023-03-03T08:13:35.189Z,99909.38
2023-03-03T08:17:04.692Z,99916.34
2023-03-03T08:19:50.111Z,99915.47
2023-03-03T08:22:46.690Z,99919.28
2023-03-03T08:25:30.526Z,99922.84
2023-03-03T08:28:23.110Z,99925.69
2023-03-03T08:31:16.751Z,99926.53
2023-03-03T08:34:11.561Z,99919.13
2023-03-03T08:37:00.208Z,99928.06
2023-03-03T08:39:43.758Z,99923.13
2023-03-03T08:42:29.075Z,99926.47
2023-03-03T08:45:24.920Z,99931.16
2023-03-03T08:48:14.182Z,99924.31
2023-03-03T08:50:49.640Z,99924.88
2023-03-03T08:53:33.732Z,99923.88
2023-03-03T08:56:17.574Z,99923.53
2023-03-03T08:59:03.000Z,99922.94
2023-03-03T09:01:36.154Z,99920.06
2023-03-03T09:04:27.755Z,99916.66
2023-03-03T09:07:17.469Z,99917.03
2023-03-03T09:10:08.086Z,99912.88
2023-03-03T09:12:51.890Z,99911.25
2023-03-03T09:15:42.103Z,99913.44
2023-03-03T09:18:38.089Z,99911.19
2023-03-03T09:21:37.101Z,99910.81
2023-03-03T09:24:26.101Z,99913.13
2023-03-03T09:27:08.804Z,99907.94
2023-03-03T09:29:56.116Z,99896.28
2023-03-03T09:32:55.542Z,99904.50
2023-03-03T09:35:45.650Z,99903.53
2023-03-03T09:38:31.718Z,99903.53
2023-03-03T09:41:42.064Z,99898.97
2023-03-03T09:44:42.252Z,99902.44
2023-03-03T09:47:52.575Z,99891.41
2023-03-03T09:51:16.093Z,99891.44
2023-03-03T09:53:58.507Z,99893.56
2023-03-03T09:57:02.341Z,99891.25
2023-03-03T09:59:53.780Z,99887.97
2023-03-03T10:03:10.549Z,99895.34
2023-03-03T10:06:10.316Z,99898.94
2023-03-03T10:09:11.229Z,99894.28
2023-03-03T10:12:19.817Z,99894.69
2023-03-03T10:15:16.074Z,99892.97
2023-03-03T10:18:18.932Z,99890.69
2023-03-03T10:21:20.215Z,99891.34
2023-03-03T10:24:09.103Z,99889.31
2023-03-03T10:27:35.128Z,99885.50
2023-03-03T10:30:54.566Z,99888.09
2023-03-03T10:34:19.727Z,99881.78
2023-03-03T10:37:10.540Z,99875.53
2023-03-03T10:40:17.686Z,99873.91
2023-03-03T10:43:09.111Z,99865.19
2023-03-03T10:46:15.171Z,99863.59
2023-03-03T10:49:16.946Z,99851.38
2023-03-03T10:52:32.073Z,99856.31
2023-03-03T10:55:28.264Z,99856.72
2023-03-03T10:58:16.618Z,99848.19
2023-03-03T11:01:05.963Z,99848.91
2023-03-03T11:04:25.109Z,99852.75
2023-03-03T11:07:15.004Z,99848.38
2023-03-03T11:10:20.379Z,99847.47
2023-03-03T11:13:19.089Z,99849.94
2023-03-03T11:16:18.164Z,99845.06
2023-03-03T11:19:08.238Z,99844.91
2023-03-03T11:22:10.789Z,99835.81
2023-03-03T11:25:20.849Z,99840.31
2023-03-03T11:28:33.623Z,99822.97
2023-03-03T11:31:38.793Z,99820.41
2023-03-03T11:34:43.036Z,99821.75
2023-03-03T11:38:02.850Z,99820.38
2023-03-03T11:41:23.099Z,99821.41
2023-03-03T11:44:31.919Z,99827.13
2023-03-03T11:47:30.976Z,99811.91
2023-03-03T11:50:42.006Z,99807.66
2023-03-03T11:53:38.936Z,99808.41
2023-03-03T11:56:58.165Z,99799.59
2023-03-03T12:00:00.452Z,99793.91
2023-03-03T12:02:47.710Z,99792.88
2023-03-03T12:05:43.295Z,99787.56
2023-03-03T12:08:51.947Z,99788.28
2023-03-03T12:11:46.530Z,99783.66
2023-03-03T12:15:08.749Z,99769.91
2023-03-03T12:18:09.815Z,99770.09
2023-03-03T12:21:29.381Z,99760.84
2023-03-03T12:24:56.174Z,99769.69
2023-03-03T12:27:51.474Z,99766.66
2023-03-03T12:31:00.100Z,99774.81
2023-03-03T12:33:57.135Z,99774.16
2023-03-03T12:37:00.967Z,99761.25
2023-03-03T12:40:04.089Z,99759.03
2023-03-03T12:43:02.160Z,99763.16
2023-03-03T12:46:09.348Z,99766.94
2023-03-03T12:48:57.218Z,99767.00
2023-03-03T12:51:55.402Z,99768.09
2023-03-03T12:55:07.038Z,99770.41
2023-03-03T12:58:11.726Z,99759.56
2023-03-03T13:01:02.153Z,99762.31
2023-03-03T13:04:07.857Z,99760.22
2023-03-03T13:07:03.187Z,99758.22
2023-03-03T13:09:58.396Z,99761.59
2023-03-03T13:13:07.147Z,99755.66
2023-03-03T13:16:17.333Z,99756.59
2023-03-03T13:19:10.015Z,99751.69
2023-03-03T13:21:58.508Z,99752.84
2023-03-03T13:25:01.137Z,99746.16
2023-03-03T13:28:01.036Z,99750.50
2023-03-03T13:30:46.534Z,99751.56
2023-03-03T13:33:31.924Z,99742.47
2023-03-03T13:36:52.482Z,99743.41
2023-03-03T13:39:43.335Z,99740.72
2023-03-03T13:42:54.915Z,99739.78
2023-03-03T13:46:05.695Z,99735.03
2023-03-03T13:49:10.320Z,99737.38
2023-03-03T13:52:20.117Z,99728.66
2023-03-03T13:55:16.177Z,99746.66
2023-03-03T13:58:26.060Z,99733.28
2023-03-03T14:01:54.551Z,99728.19
2023-03-03T14:04:53.124Z,99727.78
2023-03-03T14:07:45.783Z,99725.53
2023-03-03T14:10:48.594Z,99720.06
2023-03-03T14:13:48.065Z,99717.75
2023-03-03T14:16:55.095Z,99713.97
2023-03-03T14:19:49.080Z,99720.41
2023-03-03T14:22:56.472Z,99715.84
2023-03-03T14:26:08.709Z,99716.56
2023-03-03T14:28:56.963Z,99713.88
2023-03-03T14:31:43.597Z,99724.63
2023-03-03T14:34:41.902Z,99721.69
2023-03-03T14:37:46.332Z,99719.69
2023-03-03T14:40:36.483Z,99722.53
2023-03-03T14:43:26.607Z,99707.66
2023-03-03T14:46:34.455Z,99706.13
2023-03-03T14:49:39.119Z,99706.91
2023-03-03T14:52:42.983Z,99711.53
2023-03-03T14:55:34.118Z,99711.72
2023-03-03T14:58:29.989Z,99714.53
2023-03-03T15:01:41.626Z,99712.97
2023-03-03T15:04:40.121Z,99719.69
2023-03-03T15:07:36.236Z,99717.44
2023-03-03T15:10:38.235Z,99720.38
2023-03-03T15:13:42.664Z,99722.66
2023-03-03T15:16:41.087Z,99718.00
2023-03-03T15:19:45.228Z,99713.34
2023-03-03T15:22:46.091Z,99714.72
2023-03-03T15:26:09.700Z,99717.19
2023-03-03T15:29:02.212Z,99725.69
2023-03-03T15:31:53.588Z,99717.38
2023-03-03T15:35:13.026Z,99721.47
2023-03-03T15:38:51.940Z,99719.59
2023-03-03T15:41:53.081Z,99717.94
2023-03-03T15:44:55.883Z,99725.72
2023-03-03T15:48:22.063Z,99724.50
2023-03-03T15:51:25.049Z,99731.38
2023-03-03T15:54:45.281Z,99727.09
2023-03-03T15:57:44.430Z,99721.38
2023-03-03T16:00:49.835Z,99727.69
2023-03-03T16:03:40.247Z,99729.72
2023-03-03T16:06:50.228Z,99733.38
2023-03-03T16:09:57.054Z,99732.75
2023-03-03T16:12:46.833Z,99736.44
2023-03-03T16:15:41.809Z,99739.84
2023-03-03T16:22:21.075Z,99740.94
2023-03-03T16:25:09.094Z,99749.31
2023-03-03T16:28:19.301Z,99753.13
2023-03-03T16:31:36.597Z,99755.69
2023-03-03T16:34:47.090Z,99752.00
2023-03-03T16:37:50.859Z,99753.28
2023-03-03T16:40:39.110Z,99749.72
2023-03-03T16:44:00.720Z,99756.88
2023-03-03T16:46:50.608Z,99753.47
2023-03-03T16:49:49.942Z,99754.78
2023-03-03T16:52:40.884Z,99763.47
2023-03-03T16:55:33.252Z,99764.22
2023-03-03T16:58:44.147Z,99759.75
2023-03-03T17:01:33.794Z,99765.44
2023-03-03T17:04:34.817Z,99769.69
2023-03-03T17:07:41.096Z,99763.47
2023-03-03T17:11:10.112Z,99773.53
2023-03-03T17:14:03.258Z,99771.31
2023-03-03T17:16:57.352Z,99778.81
2023-03-03T17:19:58.075Z,99775.34
2023-03-03T17:23:04.063Z,99777.22
2023-03-03T17:26:09.548Z,99780.34
2023-03-03T17:29:20.086Z,99774.88
2023-03-03T17:32:24.825Z,99772.28
2023-03-03T17:35:26.402Z,99771.16
2023-03-03T17:38:17.759Z,99773.00
2023-03-03T17:41:08.394Z,99778.63
2023-03-03T17:44:20.058Z,99781.38
2023-03-03T17:47:18.005Z,99778.06
2023-03-03T17:50:33.959Z,99781.78
2023-03-03T17:53:42.110Z,99778.22
2023-03-03T17:57:12.102Z,99784.53
2023-03-03T18:00:06.840Z,99777.78
2023-03-03T18:03:08.215Z,99782.59
2023-03-03T18:06:18.217Z,99786.50
2023-03-03T18:09:23.006Z,99778.28
2023-03-03T18:12:46.540Z,99777.34
2023-03-03T18:16:05.421Z,99779.00
2023-03-03T18:19:16.102Z,99787.06
2023-03-03T18:22:06.387Z,99782.41
2023-03-03T18:25:04.170Z,99777.41
2023-03-03T18:27:49.143Z,99781.13
2023-03-03T18:30:33.569Z,99787.66
2023-03-03T18:33:23.060Z,99780.81
2023-03-03T18:36:37.110Z,99774.84
2023-03-03T18:39:41.180Z,99785.84
2023-03-03T18:42:41.965Z,99790.38
2023-03-03T18:45:28.090Z,99781.88
2023-03-03T18:48:17.197Z,99786.22
2023-03-03T18:50:56.319Z,99786.94
2023-03-03T18:54:17.693Z,99789.94
2023-03-03T18:57:30.903Z,99789.63
2023-03-03T19:00:28.716Z,99795.66
2023-03-03T19:03:39.749Z,99795.97
2023-03-03T19:06:39.072Z,99797.13
2023-03-03T19:09:45.755Z,99791.84
2023-03-03T19:12:51.682Z,99798.03
2023-03-03T19:15:44.226Z,99798.03
2023-03-03T19:18:32.393Z,99803.03
2023-03-03T19:21:40.024Z,99799.84
2023-03-03T19:24:41.033Z,99801.72
2023-03-03T19:27:54.036Z,99800.03
2023-03-03T19:30:56.528Z,99800.41
2023-03-03T19:34:14.462Z,99805.22
2023-03-03T19:37:15.250Z,99815.91
2023-03-03T19:40:19.119Z,99818.41
2023-03-03T19:43:19.412Z,99811.38
2023-03-03T19:46:26.460Z,99824.03
2023-03-03T19:49:27.459Z,99816.66
2023-03-03T19:52:37.050Z,99818.69
2023-03-03T19:55:36.190Z,99822.00
2023-03-03T19:58:27.111Z,99827.16
2023-03-03T20:01:24.501Z,99823.28
2023-03-03T20:04:22.254Z,99821.97
2023-03-03T20:11:21.980Z,99821.13
2023-03-03T20:14:37.701Z,99825.13
2023-03-03T20:17:36.034Z,99826.78
2023-03-03T20:20:43.429Z,99821.81
2023-03-03T20:23:38.076Z,99826.06
2023-03-03T20:26:36.807Z,99826.72
2023-03-03T20:29:44.952Z,99818.88
2023-03-03T20:32:57.004Z,99818.50
2023-03-03T20:36:19.250Z,99816.81
2023-03-03T20:39:24.026Z,99820.59
2023-03-03T20:42:52.544Z,99815.50
2023-03-03T20:46:11.131Z,99825.28
2023-03-03T20:49:21.086Z,99817.75
2023-03-03T20:52:17.386Z,99827.25
2023-03-03T20:55:16.038Z,99827.56
2023-03-03T20:58:32.233Z,99826.41
2023-03-03T21:01:25.657Z,99831.38
2023-03-03T21:04:30.443Z,99831.25
2023-03-03T21:07:28.249Z,99832.00
2023-03-03T21:10:29.018Z,99831.69
2023-03-03T21:13:47.042Z,99832.91
2023-03-03T21:16:33.491Z,99835.81
2023-03-03T21:22:25.540Z,99835.59
2023-03-03T21:25:12.044Z,99838.56
2023-03-03T21:28:12.802Z,99839.91
2023-03-03T21:31:16.896Z,99839.38
2023-03-03T21:34:22.305Z,99844.41
2023-03-03T21:37:07.074Z,99834.69
2023-03-03T21:40:20.694Z,99841.72
2023-03-03T21:43:01.270Z,99838.38
2023-03-03T21:45:49.437Z,99842.34
2023-03-03T21:48:32.458Z,99843.44
2023-03-03T21:51:17.318Z,99845.22
2023-03-03T21:54:07.149Z,99850.41
2023-03-03T21:57:07.672Z,99848.44
2023-03-03T21:59:57.059Z,99847.38
2023-03-03T22:02:46.056Z,99856.16
2023-03-03T22:05:41.599Z,99850.91
2023-03-03T22:08:33.154Z,99857.19
2023-03-03T22:11:23.575Z,99849.84
2023-03-03T22:14:08.384Z,99847.91
2023-03-03T22:17:07.026Z,99848.75
2023-03-03T22:19:48.392Z,99849.03
2023-03-03T22:22:46.368Z,99849.91
2023-03-03T22:25:31.657Z,99850.50
2023-03-03T22:28:23.509Z,99850.34
2023-03-03T22:31:23.168Z,99859.72
2023-03-03T22:34:10.299Z,99855.41
2023-03-03T22:36:56.753Z,99849.72
2023-03-03T22:39:49.167Z,99852.22
2023-03-03T22:42:35.273Z,99851.00
2023-03-03T22:45:24.484Z,99848.31
2023-03-03T22:48:12.988Z,99848.44
2023-03-03T22:51:03.088Z,99847.22
2023-03-03T22:53:53.496Z,99852.66
2023-03-03T22:56:49.308Z,99853.38
2023-03-03T22:59:37.792Z,99857.53
2023-03-03T23:02:19.036Z,99852.25
2023-03-03T23:05:10.844Z,99851.28
2023-03-03T23:07:59.874Z,99855.34
2023-03-03T23:10:49.024Z,99854.78
2023-03-03T23:13:30.141Z,99856.19
2023-03-03T23:16:10.747Z,99849.66
2023-03-03T23:18:56.952Z,99854.00
2023-03-03T23:21:47.269Z,99858.03
2023-03-03T23:24:33.143Z,99847.03
2023-03-03T23:27:22.970Z,99846.88
2023-03-03T23:30:10.979Z,99850.09
2023-03-03T23:33:01.610Z,99846.19
2023-03-03T23:35:42.491Z,99850.09
2023-03-03T23:38:24.828Z,99846.34
2023-03-03T23:41:22.747Z,99843.41
2023-03-03T23:44:15.043Z,99851.06
2023-03-03T23:47:04.042Z,99849.53
2023-03-03T23:49:50.716Z,99853.72
2023-03-03T23:52:40.529Z,99847.59
2023-03-03T23:55:31.645Z,99849.00
2023-03-03T23:58:15.272Z,99855.41
